AVA3942 SKPE-SKBO
Flight info
| Callsign | AVA3942 |
|---|---|
| Flight time | 0h 28m |
| Altitude | 19000 |
| Route | TOLIM1D TOLIM TOLIM4E |
| Aircraft | A320/M-SDE3FGHIRWY/LB1 |
Departure
| Time | 2026-05-04 20:48 |
|---|---|
| Airport | Matecaña International Airport (SKPE) |
Arrival
| Time | 2026-05-04 21:16 |
|---|---|
| Airport | El Dorado International Airport (SKBO) |
| Time | Latitude | Longitude | Altitude | Speed | Heading |
|---|---|---|---|---|---|
| 2026-05-04 20:20 | 4.81490 | -75.73750 | 4426 ft | 0 kts | 342° |
| 2026-05-04 20:39 | 4.81485 | -75.73748 | 4426 ft | 4 kts | 347° |
| 2026-05-04 20:39 | 4.81464 | -75.73750 | 4430 ft | 4 kts | 55° |
| 2026-05-04 20:39 | 4.81457 | -75.73766 | 4426 ft | 0 kts | 76° |
| 2026-05-04 20:42 | 4.81457 | -75.73765 | 4426 ft | 0 kts | 76° |
| 2026-05-04 20:42 | 4.81454 | -75.73762 | 4426 ft | 1 kts | 114° |
| 2026-05-04 20:42 | 4.81451 | -75.73716 | 4427 ft | 12 kts | 70° |
| 2026-05-04 20:43 | 4.81480 | -75.73620 | 4428 ft | 15 kts | 72° |
| 2026-05-04 20:43 | 4.81512 | -75.73516 | 4428 ft | 16 kts | 83° |
| 2026-05-04 20:43 | 4.81504 | -75.73490 | 4428 ft | 0 kts | 120° |
| 2026-05-04 20:44 | 4.81495 | -75.73483 | 4430 ft | 5 kts | 147° |
| 2026-05-04 20:44 | 4.81448 | -75.73455 | 4429 ft | 11 kts | 135° |
| 2026-05-04 20:44 | 4.81460 | -75.73363 | 4430 ft | 17 kts | 71° |
| 2026-05-04 20:45 | 4.81502 | -75.73232 | 4429 ft | 21 kts | 72° |
| 2026-05-04 20:45 | 4.81555 | -75.73097 | 4429 ft | 15 kts | 45° |
| 2026-05-04 20:45 | 4.81568 | -75.73056 | 4428 ft | 3 kts | 188° |
| 2026-05-04 20:45 | 4.81556 | -75.73072 | 4428 ft | 4 kts | 243° |
| 2026-05-04 20:46 | 4.81551 | -75.73084 | 4429 ft | 0 kts | 249° |
| 2026-05-04 20:47 | 4.81541 | -75.73111 | 4428 ft | 0 kts | 250° |
| 2026-05-04 20:47 | 4.81490 | -75.73273 | 4428 ft | 69 kts | 252° |
| 2026-05-04 20:47 | 4.81245 | -75.74026 | 4420 ft | 154 kts | 252° |
| 2026-05-04 20:47 | 4.80860 | -75.75201 | 4840 ft | 188 kts | 251° |
| 2026-05-04 20:48 | 4.80434 | -75.76499 | 5681 ft | 200 kts | 252° |
| 2026-05-04 20:48 | 4.80005 | -75.77831 | 6267 ft | 205 kts | 251° |
| 2026-05-04 20:48 | 4.79559 | -75.79214 | 6799 ft | 210 kts | 252° |
| 2026-05-04 20:48 | 4.79107 | -75.80615 | 7335 ft | 213 kts | 252° |
| 2026-05-04 20:49 | 4.78461 | -75.81950 | 7869 ft | 216 kts | 225° |
| 2026-05-04 20:49 | 4.77133 | -75.82615 | 8292 ft | 224 kts | 184° |
| 2026-05-04 20:49 | 4.75524 | -75.82430 | 8468 ft | 245 kts | 163° |
| 2026-05-04 20:49 | 4.73825 | -75.81849 | 8730 ft | 270 kts | 158° |
| 2026-05-04 20:50 | 4.72020 | -75.81127 | 9189 ft | 288 kts | 157° |
| 2026-05-04 20:50 | 4.70124 | -75.80409 | 9944 ft | 294 kts | 161° |
| 2026-05-04 20:50 | 4.68099 | -75.79828 | 10356 ft | 314 kts | 165° |
| 2026-05-04 20:50 | 4.65893 | -75.79331 | 10581 ft | 338 kts | 167° |
| 2026-05-04 20:51 | 4.63509 | -75.78887 | 10834 ft | 357 kts | 169° |
| 2026-05-04 20:51 | 4.61019 | -75.78527 | 11375 ft | 364 kts | 171° |
| 2026-05-04 20:51 | 4.58485 | -75.78210 | 12072 ft | 368 kts | 172° |
| 2026-05-04 20:51 | 4.55939 | -75.77902 | 12826 ft | 370 kts | 172° |
| 2026-05-04 20:52 | 4.53378 | -75.77583 | 13539 ft | 373 kts | 171° |
| 2026-05-04 20:52 | 4.50834 | -75.77076 | 14143 ft | 374 kts | 159° |
| 2026-05-04 20:52 | 4.48482 | -75.75966 | 14738 ft | 374 kts | 145° |
| 2026-05-04 20:52 | 4.46476 | -75.74314 | 15322 ft | 375 kts | 132° |
| 2026-05-04 20:53 | 4.44915 | -75.72219 | 15860 ft | 378 kts | 119° |
| 2026-05-04 20:53 | 4.43884 | -75.69794 | 16366 ft | 381 kts | 107° |
| 2026-05-04 20:53 | 4.43092 | -75.67242 | 16874 ft | 386 kts | 107° |
| 2026-05-04 20:53 | 4.42284 | -75.64661 | 17405 ft | 389 kts | 107° |
| 2026-05-04 20:54 | 4.41467 | -75.62066 | 17932 ft | 393 kts | 107° |
| 2026-05-04 20:54 | 4.40642 | -75.59440 | 18419 ft | 396 kts | 107° |
| 2026-05-04 20:54 | 4.39814 | -75.56803 | 18866 ft | 399 kts | 107° |
| 2026-05-04 20:54 | 4.39149 | -75.54134 | 19044 ft | 399 kts | 99° |
| 2026-05-04 20:55 | 4.38924 | -75.51338 | 19106 ft | 411 kts | 90° |
| 2026-05-04 20:55 | 4.39171 | -75.48436 | 19116 ft | 426 kts | 80° |
| 2026-05-04 20:55 | 4.39989 | -75.45559 | 19122 ft | 434 kts | 69° |
| 2026-05-04 20:55 | 4.41358 | -75.42843 | 19101 ft | 437 kts | 61° |
| 2026-05-04 20:56 | 4.42847 | -75.40198 | 19111 ft | 436 kts | 62° |
| 2026-05-04 20:56 | 4.44338 | -75.37546 | 19094 ft | 436 kts | 62° |
| 2026-05-04 20:56 | 4.45815 | -75.34899 | 19073 ft | 436 kts | 62° |
| 2026-05-04 20:56 | 4.47287 | -75.32246 | 19057 ft | 435 kts | 62° |
| 2026-05-04 20:57 | 4.48754 | -75.29596 | 19048 ft | 435 kts | 62° |
| 2026-05-04 20:57 | 4.50227 | -75.26940 | 19037 ft | 435 kts | 62° |
| 2026-05-04 20:57 | 4.51701 | -75.24289 | 19031 ft | 435 kts | 62° |
| 2026-05-04 20:57 | 4.53177 | -75.21636 | 19024 ft | 435 kts | 62° |
| 2026-05-04 20:58 | 4.54649 | -75.18990 | 19020 ft | 435 kts | 62° |
| 2026-05-04 20:58 | 4.56124 | -75.16338 | 19023 ft | 435 kts | 62° |
| 2026-05-04 20:58 | 4.57600 | -75.13682 | 19037 ft | 436 kts | 62° |
| 2026-05-04 20:58 | 4.59074 | -75.11031 | 19047 ft | 436 kts | 62° |
| 2026-05-04 20:59 | 4.60548 | -75.08378 | 19058 ft | 436 kts | 62° |
| 2026-05-04 20:59 | 4.62019 | -75.05725 | 19063 ft | 436 kts | 62° |
| 2026-05-04 20:59 | 4.63491 | -75.03067 | 19078 ft | 435 kts | 62° |
| 2026-05-04 20:59 | 4.64958 | -75.00416 | 19090 ft | 435 kts | 62° |
| 2026-05-04 21:00 | 4.66426 | -74.97771 | 19131 ft | 435 kts | 62° |
| 2026-05-04 21:00 | 4.67900 | -74.95121 | 19129 ft | 434 kts | 62° |
| 2026-05-04 21:00 | 4.69364 | -74.92485 | 19128 ft | 433 kts | 62° |
| 2026-05-04 21:00 | 4.70829 | -74.89853 | 19062 ft | 428 kts | 62° |
| 2026-05-04 21:01 | 4.72247 | -74.87308 | 18968 ft | 409 kts | 62° |
| 2026-05-04 21:01 | 4.73604 | -74.84865 | 18840 ft | 392 kts | 62° |
| 2026-05-04 21:01 | 4.74938 | -74.82541 | 18736 ft | 377 kts | 57° |
| 2026-05-04 21:01 | 4.76747 | -74.80706 | 18628 ft | 367 kts | 36° |
| 2026-05-04 21:02 | 4.79039 | -74.79698 | 18509 ft | 359 kts | 14° |
| 2026-05-04 21:02 | 4.81467 | -74.79607 | 18392 ft | 352 kts | 355° |
| 2026-05-04 21:02 | 4.83871 | -74.79947 | 18110 ft | 346 kts | 354° |
| 2026-05-04 21:02 | 4.86237 | -74.80289 | 17733 ft | 343 kts | 354° |
| 2026-05-04 21:03 | 4.88592 | -74.80628 | 17353 ft | 340 kts | 354° |
| 2026-05-04 21:03 | 4.90921 | -74.80960 | 17119 ft | 336 kts | 354° |
| 2026-05-04 21:03 | 4.93229 | -74.81257 | 17117 ft | 333 kts | 359° |
| 2026-05-04 21:03 | 4.95525 | -74.81155 | 17084 ft | 328 kts | 12° |
| 2026-05-04 21:04 | 4.97712 | -74.80581 | 16822 ft | 324 kts | 20° |
| 2026-05-04 21:04 | 4.99856 | -74.79888 | 16805 ft | 325 kts | 20° |
| 2026-05-04 21:04 | 5.02013 | -74.79205 | 16788 ft | 326 kts | 20° |
| 2026-05-04 21:04 | 5.04177 | -74.78526 | 16788 ft | 326 kts | 20° |
| 2026-05-04 21:05 | 5.06345 | -74.77850 | 16766 ft | 326 kts | 19° |
| 2026-05-04 21:05 | 5.08397 | -74.76946 | 16765 ft | 322 kts | 36° |
| 2026-05-04 21:05 | 5.10027 | -74.75430 | 16567 ft | 317 kts | 56° |
| 2026-05-04 21:05 | 5.10994 | -74.73474 | 16319 ft | 313 kts | 76° |
| 2026-05-04 21:06 | 5.11227 | -74.71319 | 16074 ft | 311 kts | 95° |
| 2026-05-04 21:06 | 5.10721 | -74.69226 | 15842 ft | 311 kts | 114° |
| 2026-05-04 21:06 | 5.09588 | -74.67385 | 15615 ft | 311 kts | 124° |
| 2026-05-04 21:06 | 5.08327 | -74.65613 | 15370 ft | 311 kts | 124° |
| 2026-05-04 21:07 | 5.07071 | -74.63845 | 15151 ft | 311 kts | 125° |
| 2026-05-04 21:07 | 5.05822 | -74.62086 | 14876 ft | 309 kts | 124° |
| 2026-05-04 21:07 | 5.04583 | -74.60341 | 14660 ft | 305 kts | 124° |
| 2026-05-04 21:07 | 5.03365 | -74.58628 | 14447 ft | 298 kts | 124° |
| 2026-05-04 21:08 | 5.02192 | -74.56973 | 14222 ft | 284 kts | 124° |
| 2026-05-04 21:08 | 5.01087 | -74.55415 | 14001 ft | 272 kts | 124° |
| 2026-05-04 21:08 | 4.99989 | -74.53866 | 13749 ft | 267 kts | 124° |
| 2026-05-04 21:08 | 4.98917 | -74.52351 | 13510 ft | 266 kts | 124° |
| 2026-05-04 21:09 | 4.97863 | -74.50859 | 13280 ft | 265 kts | 124° |
| 2026-05-04 21:09 | 4.96799 | -74.49355 | 13102 ft | 264 kts | 124° |
| 2026-05-04 21:09 | 4.95737 | -74.47856 | 12982 ft | 263 kts | 124° |
| 2026-05-04 21:09 | 4.94680 | -74.46371 | 12862 ft | 261 kts | 124° |
| 2026-05-04 21:10 | 4.93628 | -74.44890 | 12827 ft | 261 kts | 124° |
| 2026-05-04 21:10 | 4.92575 | -74.43406 | 12832 ft | 261 kts | 124° |
| 2026-05-04 21:10 | 4.91509 | -74.41932 | 12838 ft | 261 kts | 129° |
| 2026-05-04 21:10 | 4.90202 | -74.40655 | 12769 ft | 264 kts | 139° |
| 2026-05-04 21:11 | 4.88809 | -74.39491 | 12621 ft | 257 kts | 139° |
| 2026-05-04 21:11 | 4.87444 | -74.38351 | 12497 ft | 253 kts | 139° |
| 2026-05-04 21:11 | 4.86235 | -74.37133 | 12372 ft | 241 kts | 128° |
| 2026-05-04 21:11 | 4.85270 | -74.35791 | 12261 ft | 236 kts | 124° |
| 2026-05-04 21:12 | 4.84317 | -74.34455 | 12187 ft | 234 kts | 125° |
| 2026-05-04 21:12 | 4.83348 | -74.33162 | 12073 ft | 231 kts | 126° |
| 2026-05-04 21:12 | 4.82376 | -74.31880 | 11984 ft | 229 kts | 126° |
| 2026-05-04 21:12 | 4.81409 | -74.30603 | 11699 ft | 234 kts | 126° |
| 2026-05-04 21:13 | 4.80413 | -74.29286 | 11335 ft | 238 kts | 126° |
| 2026-05-04 21:13 | 4.79411 | -74.27962 | 11036 ft | 239 kts | 126° |
| 2026-05-04 21:13 | 4.78418 | -74.26651 | 10751 ft | 232 kts | 127° |
| 2026-05-04 21:13 | 4.77469 | -74.25397 | 10487 ft | 225 kts | 127° |
| 2026-05-04 21:14 | 4.76529 | -74.24156 | 10212 ft | 219 kts | 126° |
| 2026-05-04 21:14 | 4.75632 | -74.22970 | 9947 ft | 209 kts | 127° |
| 2026-05-04 21:14 | 4.74791 | -74.21861 | 9684 ft | 193 kts | 127° |
| 2026-05-04 21:14 | 4.74006 | -74.20823 | 9417 ft | 181 kts | 127° |
| 2026-05-04 21:15 | 4.73276 | -74.19859 | 9191 ft | 166 kts | 126° |
| 2026-05-04 21:15 | 4.72591 | -74.18955 | 8924 ft | 159 kts | 125° |
| 2026-05-04 21:15 | 4.71936 | -74.18089 | 8713 ft | 156 kts | 123° |
| 2026-05-04 21:15 | 4.71286 | -74.17231 | 8489 ft | 154 kts | 123° |
| 2026-05-04 21:16 | 4.70649 | -74.16390 | 8377 ft | 145 kts | 123° |
| 2026-05-04 21:16 | 4.70179 | -74.15760 | 8373 ft | 70 kts | 127° |
| 2026-05-04 21:16 | 4.70066 | -74.15528 | 8373 ft | 22 kts | 53° |
| 2026-05-04 21:16 | 4.70138 | -74.15460 | 8373 ft | 7 kts | 37° |
| 2026-05-04 21:17 | 4.70181 | -74.15429 | 8373 ft | 8 kts | 36° |
| 2026-05-04 21:17 | 4.70188 | -74.15402 | 8371 ft | 6 kts | 133° |
| 2026-05-04 21:17 | 4.70136 | -74.15344 | 8373 ft | 13 kts | 131° |
| 2026-05-04 21:17 | 4.70081 | -74.15273 | 8372 ft | 13 kts | 125° |
| 2026-05-04 21:18 | 4.70026 | -74.15198 | 8373 ft | 14 kts | 127° |
| 2026-05-04 21:18 | 4.69964 | -74.15118 | 8373 ft | 15 kts | 128° |
| 2026-05-04 21:18 | 4.69900 | -74.15035 | 8372 ft | 16 kts | 127° |
| 2026-05-04 21:18 | 4.69832 | -74.14944 | 8373 ft | 17 kts | 127° |
| 2026-05-04 21:19 | 4.69763 | -74.14852 | 8373 ft | 12 kts | 121° |
| 2026-05-04 21:19 | 4.69801 | -74.14782 | 8373 ft | 13 kts | 37° |
| 2026-05-04 21:19 | 4.69875 | -74.14727 | 8373 ft | 13 kts | 37° |
| 2026-05-04 21:19 | 4.69950 | -74.14670 | 8373 ft | 14 kts | 37° |
| 2026-05-04 21:20 | 4.70033 | -74.14608 | 8373 ft | 15 kts | 38° |
| 2026-05-04 21:20 | 4.70016 | -74.14539 | 8370 ft | 12 kts | 127° |
| 2026-05-04 21:20 | 4.69963 | -74.14470 | 8373 ft | 13 kts | 127° |
| 2026-05-04 21:20 | 4.69927 | -74.14403 | 8373 ft | 10 kts | 82° |
| 2026-05-04 21:21 | 4.69975 | -74.14355 | 8370 ft | 9 kts | 38° |
| 2026-05-04 21:21 | 4.69999 | -74.14337 | 8371 ft | 0 kts | 37° |